Time,TemperatureF,DewpointF,PressureIn,WindDirection,WindDirectionDegrees,WindSpeedMPH,WindSpeedGustMPH,Humidity,HourlyPrecipIn,Conditions,Clouds,dailyrainin,SoftwareType,DateUTC
2013-01-20 00:01:00,31.2,28.9,30.28,North,360,0.0,0.0,91,0.00,,---,0.00,VWS V14.00,2013-01-20 05:01:00,
2013-01-20 00:02:00,31.2,28.9,30.27,North,360,0.0,0.0,91,0.00,,---,0.00,VWS V14.00,2013-01-20 05:02:00,
2013-01-20 00:04:00,31.2,28.9,30.27,North,360,0.0,0.0,91,0.00,,---,0.00,VWS V14.00,2013-01-20 05:04:00,
2013-01-20 00:09:00,31.2,28.9,30.27,North,360,0.0,0.0,91,0.00,,---,0.00,VWS V14.00,2013-01-20 05:09:00,
2013-01-20 00:12:00,31.2,28.9,30.27,North,360,0.0,0.0,91,0.00,,---,0.00,VWS V14.00,2013-01-20 05:12:00,
2013-01-20 00:17:00,31.3,29.0,30.28,North,360,0.0,0.0,91,0.00,,---,0.00,VWS V14.00,2013-01-20 05:17:00,
2013-01-20 00:22:00,31.2,28.9,30.28,North,360,0.0,0.0,91,0.00,,---,0.00,VWS V14.00,2013-01-20 05:22:00,
2013-01-20 00:27:00,31.2,28.9,30.27,North,360,0.0,0.0,91,0.00,,---,0.00,VWS V14.00,2013-01-20 05:27:00,
2013-01-20 00:32:00,31.2,28.9,30.27,North,360,0.0,0.0,91,0.00,,---,0.00,VWS V14.00,2013-01-20 05:32:00,
2013-01-20 00:37:00,31.1,28.8,30.27,North,360,0.0,0.0,91,0.00,,---,0.00,VWS V14.00,2013-01-20 05:37:00,
2013-01-20 00:42:00,31.1,28.8,30.27,North,360,0.0,0.0,91,0.00,,---,0.00,VWS V14.00,2013-01-20 05:42:00,
2013-01-20 00:47:00,31.0,28.7,30.27,North,360,0.0,0.0,91,0.00,,---,0.00,VWS V14.00,2013-01-20 05:47:00,
2013-01-20 00:52:00,30.9,28.6,30.27,North,360,0.0,0.0,91,0.00,,---,0.00,VWS V14.00,2013-01-20 05:52:00,
2013-01-20 00:57:00,30.9,28.6,30.27,North,360,0.0,0.0,91,0.00,,---,0.00,VWS V14.00,2013-01-20 05:57:00,
2013-01-20 01:02:00,30.9,28.6,30.27,North,360,0.0,0.0,91,0.00,,---,0.00,VWS V14.00,2013-01-20 06:02:00,
2013-01-20 01:07:00,30.9,28.6,30.27,North,360,0.0,0.0,91,0.00,,---,0.00,VWS V14.00,2013-01-20 06:07:00,
2013-01-20 01:12:00,31.0,28.7,30.27,North,360,0.0,0.0,91,0.00,,---,0.00,VWS V14.00,2013-01-20 06:12:00,
2013-01-20 01:17:00,31.1,28.8,30.26,North,360,0.0,0.0,91,0.00,,---,0.00,VWS V14.00,2013-01-20 06:17:00,
2013-01-20 01:22:00,31.2,28.9,30.26,North,360,0.0,0.0,91,0.00,,---,0.00,VWS V14.00,2013-01-20 06:22:00,
2013-01-20 01:28:00,31.2,28.9,30.26,North,360,0.0,0.0,91,0.00,,---,0.00,VWS V14.00,2013-01-20 06:28:00,
2013-01-20 01:33:00,31.3,29.0,30.26,North,360,0.0,0.0,91,0.00,,---,0.00,VWS V14.00,2013-01-20 06:33:00,
2013-01-20 01:38:00,31.3,29.0,30.26,North,360,0.0,0.0,91,0.00,,---,0.00,VWS V14.00,2013-01-20 06:38:00,
2013-01-20 01:43:00,31.4,29.1,30.26,North,360,0.0,0.0,91,0.00,,---,0.00,VWS V14.00,2013-01-20 06:43:00,
2013-01-20 01:48:00,31.4,29.1,30.26,North,360,0.0,0.0,91,0.00,,---,0.00,VWS V14.00,2013-01-20 06:48:00,
2013-01-20 01:53:00,31.4,29.1,30.26,North,360,0.0,0.0,91,0.00,,---,0.00,VWS V14.00,2013-01-20 06:53:00,
2013-01-20 01:58:00,31.4,29.1,30.26,North,360,0.0,0.0,91,0.00,,---,0.00,VWS V14.00,2013-01-20 06:58:00,
2013-01-20 02:03:00,31.5,29.2,30.26,North,360,0.0,0.0,91,0.00,,---,0.00,VWS V14.00,2013-01-20 07:03:00,
2013-01-20 02:08:00,31.5,29.2,30.26,North,360,0.0,0.0,91,0.00,,---,0.00,VWS V14.00,2013-01-20 07:08:00,
2013-01-20 02:13:00,31.5,29.2,30.26,North,360,0.0,0.0,91,0.00,,---,0.00,VWS V14.00,2013-01-20 07:13:00,
2013-01-20 02:18:00,31.6,29.3,30.26,North,360,0.0,0.0,91,0.00,,---,0.00,VWS V14.00,2013-01-20 07:18:00,
2013-01-20 02:23:00,31.7,29.4,30.26,North,360,0.0,0.0,91,0.00,,---,0.00,VWS V14.00,2013-01-20 07:23:00,
2013-01-20 02:28:00,31.7,29.4,30.26,North,360,0.0,0.0,91,0.00,,---,0.00,VWS V14.00,2013-01-20 07:28:00,
2013-01-20 02:33:00,31.8,29.5,30.26,North,360,0.0,0.0,91,0.00,,---,0.00,VWS V14.00,2013-01-20 07:33:00,
2013-01-20 02:38:00,31.9,29.6,30.26,North,360,0.0,0.0,91,0.00,,---,0.00,VWS V14.00,2013-01-20 07:38:00,
2013-01-20 02:43:00,32.0,29.7,30.26,North,360,0.0,0.0,91,0.00,,---,0.00,VWS V14.00,2013-01-20 07:43:00,
2013-01-20 02:48:00,32.1,29.8,30.26,North,360,0.0,0.0,91,0.00,,---,0.00,VWS V14.00,2013-01-20 07:48:00,
2013-01-20 02:53:00,32.1,29.8,30.26,North,360,0.0,0.0,91,0.00,,---,0.00,VWS V14.00,2013-01-20 07:53:00,
2013-01-20 02:58:00,32.2,29.9,30.26,North,360,0.0,0.0,91,0.00,,---,0.00,VWS V14.00,2013-01-20 07:58:00,
2013-01-20 03:03:00,32.3,30.0,30.26,North,360,0.0,0.0,91,0.00,,---,0.00,VWS V14.00,2013-01-20 08:03:00,
2013-01-20 03:08:00,32.2,29.9,30.26,North,360,0.0,0.0,91,0.00,,---,0.00,VWS V14.00,2013-01-20 08:08:00,
2013-01-20 03:13:00,32.2,29.9,30.26,North,360,0.0,0.0,91,0.00,,---,0.00,VWS V14.00,2013-01-20 08:13:00,
2013-01-20 03:19:00,32.3,30.0,30.26,North,360,0.0,0.0,91,0.00,,---,0.00,VWS V14.00,2013-01-20 08:19:00,
2013-01-20 03:24:00,32.4,29.8,30.25,North,360,0.0,0.0,90,0.00,,---,0.00,VWS V14.00,2013-01-20 08:24:00,
2013-01-20 03:29:00,32.7,30.1,30.25,North,360,0.0,0.0,90,0.00,,---,0.00,VWS V14.00,2013-01-20 08:29:00,
2013-01-20 03:34:00,32.8,30.2,30.25,North,360,0.0,0.0,90,0.00,,---,0.00,VWS V14.00,2013-01-20 08:34:00,
2013-01-20 03:39:00,33.3,30.4,30.25,North,360,0.0,0.0,89,0.00,,---,0.00,VWS V14.00,2013-01-20 08:39:00,
2013-01-20 03:44:00,34.0,30.5,30.24,North,360,0.0,0.0,87,0.00,,---,0.00,VWS V14.00,2013-01-20 08:44:00,
2013-01-20 03:49:00,34.9,31.4,30.25,North,360,0.0,0.0,87,0.00,,---,0.00,VWS V14.00,2013-01-20 08:49:00,
2013-01-20 03:54:00,35.5,31.1,30.24,North,360,0.0,0.0,84,0.00,,---,0.00,VWS V14.00,2013-01-20 08:54:00,
2013-01-20 03:59:00,36.2,31.5,30.24,North,360,0.0,0.0,83,0.00,,---,0.00,VWS V14.00,2013-01-20 08:59:00,
2013-01-20 04:04:00,37.0,31.7,30.24,North,360,0.0,0.0,81,0.00,,---,0.00,VWS V14.00,2013-01-20 09:04:00,
2013-01-20 04:09:00,37.8,32.2,30.24,North,360,0.0,0.0,80,0.00,,---,0.00,VWS V14.00,2013-01-20 09:09:00,
2013-01-20 04:14:00,38.5,32.2,30.24,North,360,0.0,0.0,78,0.00,,---,0.00,VWS V14.00,2013-01-20 09:14:00,
2013-01-20 04:19:00,39.3,32.7,30.24,North,360,0.0,0.0,77,0.00,,---,0.00,VWS V14.00,2013-01-20 09:19:00,
2013-01-20 04:24:00,39.7,32.4,30.24,North,360,0.0,0.0,75,0.00,,---,0.00,VWS V14.00,2013-01-20 09:24:00,
2013-01-20 04:29:00,40.2,32.6,30.24,North,360,0.0,0.0,74,0.00,,---,0.00,VWS V14.00,2013-01-20 09:29:00,
2013-01-20 04:34:00,40.6,32.6,30.24,North,360,0.0,0.0,73,0.00,,---,0.00,VWS V14.00,2013-01-20 09:34:00,
2013-01-20 04:39:00,40.7,32.4,30.24,North,360,0.0,0.0,72,0.00,,---,0.00,VWS V14.00,2013-01-20 09:39:00,
2013-01-20 04:44:00,40.7,32.4,30.24,North,360,0.0,0.0,72,0.00,,---,0.00,VWS V14.00,2013-01-20 09:44:00,
2013-01-20 04:49:00,40.5,32.9,30.24,North,360,0.0,0.0,74,0.00,,---,0.00,VWS V14.00,2013-01-20 09:49:00,
2013-01-20 04:54:00,40.2,32.2,30.24,North,360,0.0,0.0,73,0.00,,---,0.00,VWS V14.00,2013-01-20 09:54:00,
2013-01-20 04:59:00,39.8,32.2,30.24,North,360,0.0,0.0,74,0.00,,---,0.00,VWS V14.00,2013-01-20 09:59:00,
2013-01-20 05:04:00,39.5,31.9,30.24,North,360,0.0,0.0,74,0.00,,---,0.00,VWS V14.00,2013-01-20 10:04:00,
2013-01-20 05:09:00,39.1,31.9,30.24,North,360,0.0,0.0,75,0.00,,---,0.00,VWS V14.00,2013-01-20 10:09:00,
2013-01-20 05:14:00,38.6,31.4,30.24,North,360,0.0,0.0,75,0.00,,---,0.00,VWS V14.00,2013-01-20 10:14:00,
2013-01-20 05:19:00,38.2,31.6,30.24,North,360,0.0,0.0,77,0.00,,---,0.00,VWS V14.00,2013-01-20 10:19:00,
2013-01-20 05:25:00,37.8,31.6,30.24,North,360,0.0,0.0,78,0.00,,---,0.00,VWS V14.00,2013-01-20 10:25:00,
2013-01-20 05:30:00,37.4,31.5,30.24,North,360,0.0,0.0,79,0.00,,---,0.00,VWS V14.00,2013-01-20 10:30:00,
2013-01-20 05:35:00,37.3,31.7,30.23,North,360,0.0,0.0,80,0.00,,---,0.00,VWS V14.00,2013-01-20 10:35:00,
2013-01-20 05:40:00,37.0,31.7,30.24,North,360,0.0,0.0,81,0.00,,---,0.00,VWS V14.00,2013-01-20 10:40:00,
2013-01-20 05:45:00,36.7,31.4,30.24,North,360,0.0,0.0,81,0.00,,---,0.00,VWS V14.00,2013-01-20 10:45:00,
2013-01-20 05:50:00,36.4,31.4,30.24,North,360,0.0,0.0,82,0.00,,---,0.00,VWS V14.00,2013-01-20 10:50:00,
2013-01-20 05:55:00,36.3,31.3,30.24,North,360,0.0,0.0,82,0.00,,---,0.00,VWS V14.00,2013-01-20 10:55:00,
2013-01-20 06:00:00,36.1,31.5,30.24,North,360,0.0,0.0,83,0.00,,---,0.00,VWS V14.00,2013-01-20 11:00:00,
2013-01-20 06:05:00,35.8,31.1,30.24,North,360,0.0,0.0,83,0.00,,---,0.00,VWS V14.00,2013-01-20 11:05:00,
2013-01-20 06:10:00,35.6,31.0,30.24,North,360,0.0,0.0,83,0.00,,---,0.00,VWS V14.00,2013-01-20 11:10:00,
2013-01-20 06:15:00,35.4,31.1,30.24,North,360,0.0,0.0,84,0.00,,---,0.00,VWS V14.00,2013-01-20 11:15:00,
2013-01-20 06:20:00,35.1,31.0,30.24,North,360,0.0,0.0,85,0.00,,---,0.00,VWS V14.00,2013-01-20 11:20:00,
2013-01-20 06:25:00,34.8,30.8,30.24,North,360,0.0,0.0,85,0.00,,---,0.00,VWS V14.00,2013-01-20 11:25:00,
2013-01-20 06:30:00,34.6,30.9,30.24,North,360,0.0,0.0,86,0.00,,---,0.00,VWS V14.00,2013-01-20 11:30:00,
2013-01-20 06:35:00,34.4,30.9,30.24,North,360,0.0,0.0,87,0.00,,---,0.00,VWS V14.00,2013-01-20 11:35:00,
2013-01-20 06:40:00,34.2,30.7,30.24,North,360,0.0,0.0,87,0.00,,---,0.00,VWS V14.00,2013-01-20 11:40:00,
2013-01-20 06:45:00,34.1,30.9,30.24,North,360,0.0,0.0,88,0.00,,---,0.00,VWS V14.00,2013-01-20 11:45:00,
2013-01-20 06:51:00,33.9,30.7,30.24,North,360,0.0,0.0,88,0.00,,---,0.00,VWS V14.00,2013-01-20 11:51:00,
2013-01-20 06:56:00,33.8,30.6,30.24,North,360,0.0,0.0,88,0.00,,---,0.00,VWS V14.00,2013-01-20 11:56:00,
2013-01-20 07:01:00,33.7,30.8,30.24,North,360,0.0,0.0,89,0.00,,---,0.00,VWS V14.00,2013-01-20 12:01:00,
2013-01-20 07:06:00,33.7,30.8,30.24,North,360,0.0,0.0,89,0.00,,---,0.00,VWS V14.00,2013-01-20 12:06:00,
2013-01-20 07:11:00,33.8,30.9,30.24,North,360,0.0,0.0,89,0.00,,---,0.00,VWS V14.00,2013-01-20 12:11:00,
2013-01-20 07:16:00,33.8,30.9,30.23,North,360,0.0,0.0,89,0.00,,---,0.00,VWS V14.00,2013-01-20 12:16:00,
2013-01-20 07:21:00,34.1,30.9,30.24,North,360,0.0,0.0,88,0.00,,---,0.00,VWS V14.00,2013-01-20 12:21:00,
2013-01-20 07:26:00,34.3,30.8,30.23,North,360,0.0,0.0,87,0.00,,---,0.00,VWS V14.00,2013-01-20 12:26:00,
2013-01-20 07:31:00,34.5,31.0,30.24,North,360,0.0,0.0,87,0.00,,---,0.00,VWS V14.00,2013-01-20 12:31:00,
2013-01-20 07:36:00,34.6,30.9,30.24,North,360,0.0,0.0,86,0.00,,---,0.00,VWS V14.00,2013-01-20 12:36:00,
2013-01-20 07:41:00,35.2,31.4,30.24,North,360,0.0,0.0,86,0.00,,---,0.00,VWS V14.00,2013-01-20 12:41:00,
2013-01-20 07:46:00,35.4,31.4,30.24,North,360,0.0,0.0,85,0.00,,---,0.00,VWS V14.00,2013-01-20 12:46:00,
2013-01-20 07:52:00,35.6,31.2,30.24,North,360,0.0,0.0,84,0.00,,---,0.00,VWS V14.00,2013-01-20 12:52:00,
2013-01-20 07:57:00,35.9,31.5,30.24,North,360,0.0,0.0,84,0.00,,---,0.00,VWS V14.00,2013-01-20 12:57:00,
2013-01-20 08:02:00,36.6,31.9,30.24,North,360,0.0,0.0,83,0.00,,---,0.00,VWS V14.00,2013-01-20 13:02:00,
2013-01-20 08:07:00,37.1,32.1,30.24,North,360,0.0,0.0,82,0.00,,---,0.00,VWS V14.00,2013-01-20 13:07:00,
2013-01-20 08:12:00,37.7,31.8,30.24,North,360,0.0,0.0,79,0.00,,---,0.00,VWS V14.00,2013-01-20 13:12:00,
2013-01-20 08:17:00,38.8,32.5,30.24,North,360,0.0,0.0,78,0.00,,---,0.00,VWS V14.00,2013-01-20 13:17:00,
2013-01-20 08:22:00,39.5,32.9,30.24,North,360,0.0,0.0,77,0.00,,---,0.00,VWS V14.00,2013-01-20 13:22:00,
2013-01-20 08:27:00,39.8,33.2,30.24,North,360,0.0,0.0,77,0.00,,---,0.00,VWS V14.00,2013-01-20 13:27:00,
2013-01-20 08:32:00,40.4,33.5,30.24,North,360,0.0,0.0,76,0.00,,---,0.00,VWS V14.00,2013-01-20 13:32:00,
2013-01-20 08:37:00,40.5,33.2,30.23,North,360,0.0,0.0,75,0.00,,---,0.00,VWS V14.00,2013-01-20 13:37:00,
2013-01-20 08:42:00,40.7,33.1,30.24,North,360,0.0,0.0,74,0.00,,---,0.00,VWS V14.00,2013-01-20 13:42:00,
2013-01-20 08:47:00,41.0,33.7,30.24,North,360,0.0,0.0,75,0.00,,---,0.00,VWS V14.00,2013-01-20 13:47:00,
2013-01-20 08:52:00,41.3,33.3,30.24,North,360,0.0,0.0,73,0.00,,---,0.00,VWS V14.00,2013-01-20 13:52:00,
2013-01-20 08:57:00,41.9,34.2,30.23,North,360,0.0,0.0,74,0.00,,---,0.00,VWS V14.00,2013-01-20 13:57:00,
2013-01-20 09:02:00,42.2,33.5,30.24,North,360,0.0,0.0,71,0.00,,---,0.00,VWS V14.00,2013-01-20 14:02:00,
2013-01-20 09:07:00,42.8,33.7,30.24,North,360,0.0,0.0,70,0.00,,---,0.00,VWS V14.00,2013-01-20 14:07:00,
2013-01-20 09:12:00,43.4,34.6,30.24,North,360,0.0,0.0,71,0.00,,---,0.00,VWS V14.00,2013-01-20 14:12:00,
2013-01-20 09:18:00,43.9,34.0,30.24,North,360,0.0,0.0,68,0.00,,---,0.00,VWS V14.00,2013-01-20 14:18:00,
2013-01-20 09:23:00,44.5,33.9,30.24,North,360,0.0,0.0,66,0.00,,---,0.00,VWS V14.00,2013-01-20 14:23:00,
2013-01-20 09:28:00,45.1,34.4,30.24,North,360,0.0,0.0,66,0.00,,---,0.00,VWS V14.00,2013-01-20 14:28:00,
2013-01-20 09:33:00,45.4,34.3,30.24,North,360,0.0,0.0,65,0.00,,---,0.00,VWS V14.00,2013-01-20 14:33:00,
2013-01-20 09:38:00,45.8,34.3,30.24,North,360,0.0,0.0,64,0.00,,---,0.00,VWS V14.00,2013-01-20 14:38:00,
2013-01-20 09:43:00,46.2,34.3,30.24,North,360,0.0,0.0,63,0.00,,---,0.00,VWS V14.00,2013-01-20 14:43:00,
2013-01-20 09:48:00,46.7,34.4,30.24,North,360,0.0,0.0,62,0.00,,---,0.00,VWS V14.00,2013-01-20 14:48:00,
2013-01-20 09:53:00,47.0,34.3,30.24,North,360,0.0,0.0,61,0.00,,---,0.00,VWS V14.00,2013-01-20 14:53:00,
2013-01-20 09:58:00,47.3,35.0,30.24,North,360,0.0,0.0,62,0.00,,---,0.00,VWS V14.00,2013-01-20 14:58:00,
2013-01-20 10:03:00,47.6,34.8,30.24,North,360,0.0,0.0,61,0.00,,---,0.00,VWS V14.00,2013-01-20 15:03:00,
2013-01-20 10:08:00,47.9,34.7,30.24,North,360,0.0,0.0,60,0.00,,---,0.00,VWS V14.00,2013-01-20 15:08:00,
2013-01-20 10:13:00,48.1,34.9,30.24,North,360,0.0,0.0,60,0.00,,---,0.00,VWS V14.00,2013-01-20 15:13:00,
2013-01-20 10:18:00,48.3,35.5,30.24,North,360,0.0,0.0,61,0.00,,---,0.00,VWS V14.00,2013-01-20 15:18:00,
2013-01-20 10:23:00,48.6,35.4,30.25,North,360,0.0,0.0,60,0.00,,---,0.00,VWS V14.00,2013-01-20 15:23:00,
2013-01-20 10:28:00,48.8,34.7,30.24,North,360,0.0,0.0,58,0.00,,---,0.00,VWS V14.00,2013-01-20 15:28:00,
2013-01-20 10:33:00,48.9,35.2,30.25,North,360,0.0,0.0,59,0.00,,---,0.00,VWS V14.00,2013-01-20 15:33:00,
2013-01-20 10:38:00,49.1,35.8,30.24,North,360,0.0,0.0,60,0.00,,---,0.00,VWS V14.00,2013-01-20 15:38:00,
2013-01-20 10:43:00,49.3,35.6,30.24,North,360,0.0,0.0,59,0.00,,---,0.00,VWS V14.00,2013-01-20 15:43:00,
2013-01-20 10:48:00,49.5,35.3,30.24,North,360,0.0,0.0,58,0.00,,---,0.00,VWS V14.00,2013-01-20 15:48:00,
2013-01-20 10:53:00,49.6,35.0,30.24,North,360,0.0,0.0,57,0.00,,---,0.00,VWS V14.00,2013-01-20 15:53:00,
2013-01-20 10:58:00,49.7,35.5,30.24,North,360,0.0,0.0,58,0.00,,---,0.00,VWS V14.00,2013-01-20 15:58:00,
2013-01-20 11:03:00,49.9,35.3,30.24,North,360,0.0,0.0,57,0.00,,---,0.00,VWS V14.00,2013-01-20 16:03:00,
2013-01-20 11:08:00,50.1,35.5,30.24,North,360,0.0,0.0,57,0.00,,---,0.00,VWS V14.00,2013-01-20 16:08:00,
2013-01-20 11:14:00,50.3,35.7,30.23,North,360,0.0,0.0,57,0.00,,---,0.00,VWS V14.00,2013-01-20 16:14:00,
2013-01-20 11:19:00,50.6,35.9,30.23,North,360,0.0,0.0,57,0.00,,---,0.00,VWS V14.00,2013-01-20 16:19:00,
2013-01-20 11:24:00,50.7,36.0,30.23,North,360,0.0,0.0,57,0.00,,---,0.00,VWS V14.00,2013-01-20 16:24:00,
2013-01-20 11:29:00,50.8,36.1,30.23,North,360,0.0,0.0,57,0.00,,---,0.00,VWS V14.00,2013-01-20 16:29:00,
2013-01-20 11:34:00,50.9,36.2,30.23,North,360,0.0,0.0,57,0.00,,---,0.00,VWS V14.00,2013-01-20 16:34:00,
2013-01-20 11:39:00,51.1,36.0,30.22,North,360,0.0,0.0,56,0.00,,---,0.00,VWS V14.00,2013-01-20 16:39:00,
2013-01-20 11:44:00,51.2,36.1,30.22,North,360,0.0,0.0,56,0.00,,---,0.00,VWS V14.00,2013-01-20 16:44:00,
2013-01-20 11:49:00,51.4,36.2,30.22,North,360,0.0,0.0,56,0.00,,---,0.00,VWS V14.00,2013-01-20 16:49:00,
2013-01-20 11:54:00,51.6,36.0,30.22,North,360,0.0,0.0,55,0.00,,---,0.00,VWS V14.00,2013-01-20 16:54:00,
2013-01-20 11:59:00,51.8,36.6,30.22,North,360,0.0,0.0,56,0.00,,---,0.00,VWS V14.00,2013-01-20 16:59:00,
2013-01-20 12:04:00,52.0,36.8,30.21,North,360,0.0,0.0,56,0.00,,---,0.00,VWS V14.00,2013-01-20 17:04:00,
2013-01-20 12:09:00,52.4,37.2,30.21,North,360,0.0,0.0,56,0.00,,---,0.00,VWS V14.00,2013-01-20 17:09:00,
2013-01-20 12:14:00,52.7,37.0,30.21,North,360,0.0,0.0,55,0.00,,---,0.00,VWS V14.00,2013-01-20 17:14:00,
2013-01-20 12:19:00,52.9,36.7,30.21,North,360,0.0,0.0,54,0.00,,---,0.00,VWS V14.00,2013-01-20 17:19:00,
2013-01-20 12:24:00,53.1,36.9,30.20,North,360,0.0,0.0,54,0.00,,---,0.00,VWS V14.00,2013-01-20 17:24:00,
2013-01-20 12:29:00,53.4,37.2,30.20,North,360,0.0,0.0,54,0.00,,---,0.00,VWS V14.00,2013-01-20 17:29:00,
2013-01-20 12:34:00,53.7,37.9,30.19,North,360,0.0,0.0,55,0.00,,---,0.00,VWS V14.00,2013-01-20 17:34:00,
2013-01-20 12:39:00,54.1,37.8,30.19,North,360,0.0,0.0,54,0.00,,---,0.00,VWS V14.00,2013-01-20 17:39:00,
2013-01-20 12:44:00,54.4,37.6,30.19,North,360,0.0,0.0,53,0.00,,---,0.00,VWS V14.00,2013-01-20 17:44:00,
2013-01-20 12:49:00,54.7,37.4,30.19,North,360,0.0,0.0,52,0.00,,---,0.00,VWS V14.00,2013-01-20 17:49:00,
2013-01-20 12:54:00,54.9,38.1,30.19,North,360,0.0,0.0,53,0.00,,---,0.00,VWS V14.00,2013-01-20 17:54:00,
2013-01-20 12:59:00,55.3,38.5,30.19,North,360,0.0,0.0,53,0.00,,---,0.00,VWS V14.00,2013-01-20 17:59:00,
2013-01-20 13:04:00,55.7,38.8,30.18,North,360,0.0,0.0,53,0.00,,---,0.00,VWS V14.00,2013-01-20 18:04:00,
2013-01-20 13:09:00,55.9,38.5,30.18,North,360,0.0,0.0,52,0.00,,---,0.00,VWS V14.00,2013-01-20 18:09:00,
2013-01-20 13:14:00,55.9,38.0,30.18,North,360,0.0,0.0,51,0.00,,---,0.00,VWS V14.00,2013-01-20 18:14:00,
2013-01-20 13:19:00,56.0,38.6,30.18,North,360,0.0,0.0,52,0.00,,---,0.00,VWS V14.00,2013-01-20 18:19:00,
2013-01-20 13:24:00,56.1,38.2,30.17,North,360,0.0,0.0,51,0.00,,---,0.00,VWS V14.00,2013-01-20 18:24:00,
2013-01-20 13:29:00,56.1,37.7,30.17,North,360,0.0,0.0,50,0.00,,---,0.00,VWS V14.00,2013-01-20 18:29:00,
2013-01-20 13:34:00,56.3,37.4,30.17,North,360,0.0,0.0,49,0.00,,---,0.00,VWS V14.00,2013-01-20 18:34:00,
2013-01-20 13:40:00,56.3,37.4,30.17,North,360,0.0,0.0,49,0.00,,---,0.00,VWS V14.00,2013-01-20 18:40:00,
2013-01-20 13:45:00,56.4,37.5,30.17,North,360,0.0,0.0,49,0.00,,---,0.00,VWS V14.00,2013-01-20 18:45:00,
2013-01-20 13:50:00,56.6,38.2,30.16,North,360,0.0,0.0,50,0.00,,---,0.00,VWS V14.00,2013-01-20 18:50:00,
2013-01-20 13:55:00,56.7,37.2,30.16,North,360,0.0,0.0,48,0.00,,---,0.00,VWS V14.00,2013-01-20 18:55:00,
2013-01-20 14:00:00,56.8,37.3,30.16,North,360,0.0,0.0,48,0.00,,---,0.00,VWS V14.00,2013-01-20 19:00:00,
2013-01-20 14:05:00,56.9,37.4,30.16,North,360,0.0,0.0,48,0.00,,---,0.00,VWS V14.00,2013-01-20 19:05:00,
2013-01-20 14:10:00,57.1,37.1,30.16,North,360,0.0,0.0,47,0.00,,---,0.00,VWS V14.00,2013-01-20 19:10:00,
2013-01-20 14:15:00,57.2,37.7,30.15,North,360,0.0,0.0,48,0.00,,---,0.00,VWS V14.00,2013-01-20 19:15:00,
2013-01-20 14:20:00,57.2,36.6,30.16,North,360,0.0,0.0,46,0.00,,---,0.00,VWS V14.00,2013-01-20 19:20:00,
2013-01-20 14:25:00,57.2,36.6,30.16,North,360,0.0,0.0,46,0.00,,---,0.00,VWS V14.00,2013-01-20 19:25:00,
2013-01-20 14:30:00,57.1,36.5,30.16,North,360,0.0,0.0,46,0.00,,---,0.00,VWS V14.00,2013-01-20 19:30:00,
2013-01-20 14:35:00,57.1,37.1,30.15,North,360,0.0,0.0,47,0.00,,---,0.00,VWS V14.00,2013-01-20 19:35:00,
2013-01-20 14:40:00,57.0,37.0,30.15,North,360,0.0,0.0,47,0.00,,---,0.00,VWS V14.00,2013-01-20 19:40:00,
2013-01-20 14:45:00,56.9,36.3,30.15,North,360,0.0,0.0,46,0.00,,---,0.00,VWS V14.00,2013-01-20 19:45:00,
2013-01-20 14:50:00,56.8,35.7,30.15,North,360,0.0,0.0,45,0.00,,---,0.00,VWS V14.00,2013-01-20 19:50:00,
2013-01-20 14:55:00,56.6,35.5,30.15,North,360,0.0,0.0,45,0.00,,---,0.00,VWS V14.00,2013-01-20 19:55:00,
2013-01-20 15:00:00,56.5,36.0,30.15,North,360,0.0,0.0,46,0.00,,---,0.00,VWS V14.00,2013-01-20 20:00:00,
2013-01-20 15:05:00,56.5,35.4,30.15,North,360,0.0,0.0,45,0.00,,---,0.00,VWS V14.00,2013-01-20 20:05:00,
2013-01-20 15:10:00,56.6,35.5,30.15,North,360,0.0,0.0,45,0.00,,---,0.00,VWS V14.00,2013-01-20 20:10:00,
2013-01-20 15:15:00,56.7,36.2,30.15,North,360,0.0,0.0,46,0.00,,---,0.00,VWS V14.00,2013-01-20 20:15:00,
2013-01-20 15:20:00,56.7,35.6,30.15,North,360,0.0,0.0,45,0.00,,---,0.00,VWS V14.00,2013-01-20 20:20:00,
2013-01-20 15:25:00,56.7,36.2,30.15,North,360,0.0,0.0,46,0.00,,---,0.00,VWS V14.00,2013-01-20 20:25:00,
2013-01-20 15:30:00,56.7,35.0,30.15,North,360,0.0,0.0,44,0.00,,---,0.00,VWS V14.00,2013-01-20 20:30:00,
2013-01-20 15:35:00,56.7,34.5,30.15,North,360,0.0,0.0,43,0.00,,---,0.00,VWS V14.00,2013-01-20 20:35:00,
2013-01-20 15:40:00,56.7,34.5,30.14,North,360,0.0,0.0,43,0.00,,---,0.00,VWS V14.00,2013-01-20 20:40:00,
2013-01-20 15:46:00,56.7,35.0,30.15,North,360,0.0,0.0,44,0.00,,---,0.00,VWS V14.00,2013-01-20 20:46:00,
2013-01-20 15:51:00,56.6,36.1,30.15,North,360,0.0,0.0,46,0.00,,---,0.00,VWS V14.00,2013-01-20 20:51:00,
2013-01-20 15:56:00,56.6,36.6,30.15,North,360,0.0,0.0,47,0.00,,---,0.00,VWS V14.00,2013-01-20 20:56:00,
2013-01-20 16:01:00,56.5,36.0,30.14,North,360,0.0,0.0,46,0.00,,---,0.00,VWS V14.00,2013-01-20 21:01:00,
2013-01-20 16:06:00,56.3,37.4,30.15,North,360,0.0,0.0,49,0.00,,---,0.00,VWS V14.00,2013-01-20 21:06:00,
2013-01-20 16:13:00,56.0,37.1,30.14,North,360,0.0,0.0,49,0.00,,---,0.00,VWS V14.00,2013-01-20 21:13:00,
2013-01-20 16:18:00,55.8,35.3,30.14,North,360,0.0,0.0,46,0.00,,---,0.00,VWS V14.00,2013-01-20 21:18:00,
2013-01-20 16:23:00,55.7,35.3,30.15,North,360,0.0,0.0,46,0.00,,---,0.00,VWS V14.00,2013-01-20 21:23:00,
2013-01-20 16:28:00,55.6,36.8,30.15,North,360,0.0,0.0,49,0.00,,---,0.00,VWS V14.00,2013-01-20 21:28:00,
2013-01-20 16:33:00,55.4,37.1,30.15,North,360,0.0,0.0,50,0.00,,---,0.00,VWS V14.00,2013-01-20 21:33:00,
2013-01-20 16:38:00,55.2,36.9,30.15,North,360,0.0,0.0,50,0.00,,---,0.00,VWS V14.00,2013-01-20 21:38:00,
2013-01-20 16:43:00,54.9,38.1,30.14,North,360,0.0,0.0,53,0.00,,---,0.00,VWS V14.00,2013-01-20 21:43:00,
2013-01-20 16:49:00,54.5,37.2,30.15,North,360,0.0,0.0,52,0.00,,---,0.00,VWS V14.00,2013-01-20 21:49:00,
2013-01-20 16:54:00,54.2,37.5,30.15,North,360,0.0,0.0,53,0.00,,---,0.00,VWS V14.00,2013-01-20 21:54:00,
2013-01-20 16:59:00,53.9,36.7,30.15,North,360,0.0,0.0,52,0.00,,---,0.00,VWS V14.00,2013-01-20 21:59:00,
2013-01-20 17:04:00,53.6,36.4,30.15,North,360,0.0,0.0,52,0.00,,---,0.00,VWS V14.00,2013-01-20 22:04:00,
2013-01-20 17:09:00,53.5,36.8,30.15,North,360,0.0,0.0,53,0.00,,---,0.00,VWS V14.00,2013-01-20 22:09:00,
2013-01-20 17:14:00,53.2,37.5,30.15,North,360,0.0,0.0,55,0.00,,---,0.00,VWS V14.00,2013-01-20 22:14:00,
2013-01-20 17:19:00,52.8,36.2,30.15,North,360,0.0,0.0,53,0.00,,---,0.00,VWS V14.00,2013-01-20 22:19:00,
2013-01-20 17:24:00,52.6,36.5,30.15,North,360,0.0,0.0,54,0.00,,---,0.00,VWS V14.00,2013-01-20 22:24:00,
2013-01-20 17:30:00,52.4,36.3,30.15,North,360,0.0,0.0,54,0.00,,---,0.00,VWS V14.00,2013-01-20 22:30:00,
2013-01-20 17:35:00,52.1,36.4,30.15,North,360,0.0,0.0,55,0.00,,---,0.00,VWS V14.00,2013-01-20 22:35:00,
2013-01-20 17:40:00,51.8,36.6,30.15,North,360,0.0,0.0,56,0.00,,---,0.00,VWS V14.00,2013-01-20 22:40:00,
2013-01-20 17:45:00,51.6,36.0,30.15,North,360,0.0,0.0,55,0.00,,---,0.00,VWS V14.00,2013-01-20 22:45:00,
2013-01-20 17:50:00,51.4,36.7,30.14,North,360,0.0,0.0,57,0.00,,---,0.00,VWS V14.00,2013-01-20 22:50:00,
2013-01-20 17:55:00,51.1,36.4,30.14,North,360,0.0,0.0,57,0.00,,---,0.00,VWS V14.00,2013-01-20 22:55:00,
2013-01-20 18:00:00,50.8,35.2,30.15,North,360,0.0,0.0,55,0.00,,---,0.00,VWS V14.00,2013-01-20 23:00:00,
2013-01-20 18:05:00,50.7,35.1,30.15,North,360,0.0,0.0,55,0.00,,---,0.00,VWS V14.00,2013-01-20 23:05:00,
2013-01-20 18:10:00,50.5,35.4,30.15,North,360,0.0,0.0,56,0.00,,---,0.00,VWS V14.00,2013-01-20 23:10:00,
2013-01-20 18:15:00,50.3,35.2,30.15,North,360,0.0,0.0,56,0.00,,---,0.00,VWS V14.00,2013-01-20 23:15:00,
2013-01-20 18:20:00,50.1,35.0,30.15,North,360,0.0,0.0,56,0.00,,---,0.00,VWS V14.00,2013-01-20 23:20:00,
2013-01-20 18:26:00,50.1,35.0,30.15,North,360,0.0,0.0,56,0.00,,---,0.00,VWS V14.00,2013-01-20 23:26:00,
2013-01-20 18:31:00,50.0,34.5,30.15,North,360,0.0,0.0,55,0.00,,---,0.00,VWS V14.00,2013-01-20 23:31:00,
2013-01-20 18:36:00,50.1,34.6,30.16,North,360,0.0,0.0,55,0.00,,---,0.00,VWS V14.00,2013-01-20 23:36:00,
2013-01-20 18:41:00,50.0,34.9,30.16,North,360,0.0,0.0,56,0.00,,---,0.00,VWS V14.00,2013-01-20 23:41:00,
2013-01-20 18:46:00,50.0,34.9,30.16,North,360,0.0,0.0,56,0.00,,---,0.00,VWS V14.00,2013-01-20 23:46:00,
2013-01-20 18:52:00,49.9,34.8,30.16,North,360,0.0,0.0,56,0.00,,---,0.00,VWS V14.00,2013-01-20 23:52:00,
2013-01-20 18:58:00,49.8,34.8,30.16,North,360,0.0,0.0,56,0.00,,---,0.00,VWS V14.00,2013-01-20 23:58:00,
2013-01-20 19:03:00,49.7,35.1,30.16,North,360,0.0,0.0,57,0.00,,---,0.00,VWS V14.00,2013-01-21 00:03:00,
2013-01-20 19:08:00,49.4,35.3,30.16,North,360,0.0,0.0,58,0.00,,---,0.00,VWS V14.00,2013-01-21 00:08:00,
2013-01-20 19:13:00,49.2,35.1,30.16,North,360,0.0,0.0,58,0.00,,---,0.00,VWS V14.00,2013-01-21 00:13:00,
2013-01-20 19:18:00,48.9,35.2,30.16,North,360,0.0,0.0,59,0.00,,---,0.00,VWS V14.00,2013-01-21 00:18:00,
2013-01-20 19:23:00,48.7,35.5,30.16,North,360,0.0,0.0,60,0.00,,---,0.00,VWS V14.00,2013-01-21 00:23:00,
2013-01-20 19:28:00,48.5,35.3,30.16,North,360,0.0,0.0,60,0.00,,---,0.00,VWS V14.00,2013-01-21 00:28:00,
2013-01-20 19:34:00,48.2,35.4,30.16,North,360,0.0,0.0,61,0.00,,---,0.00,VWS V14.00,2013-01-21 00:34:00,
2013-01-20 19:39:00,47.9,35.9,30.15,North,360,0.0,0.0,63,0.00,,---,0.00,VWS V14.00,2013-01-21 00:39:00,
2013-01-20 19:44:00,47.5,35.9,30.15,North,360,0.0,0.0,64,0.00,,---,0.00,VWS V14.00,2013-01-21 00:44:00,
2013-01-20 19:49:00,47.0,35.9,30.16,North,360,0.0,0.0,65,0.00,,---,0.00,VWS V14.00,2013-01-21 00:49:00,
2013-01-20 19:54:00,46.3,35.2,30.16,North,360,0.0,0.0,65,0.00,,---,0.00,VWS V14.00,2013-01-21 00:54:00,
2013-01-20 20:00:00,45.6,35.3,30.16,North,360,0.0,0.0,67,0.00,,---,0.00,VWS V14.00,2013-01-21 01:00:00,
2013-01-20 20:05:00,45.1,35.2,30.16,North,360,0.0,0.0,68,0.00,,---,0.00,VWS V14.00,2013-01-21 01:05:00,
2013-01-20 20:10:00,44.5,35.0,30.16,North,360,0.0,0.0,69,0.00,,---,0.00,VWS V14.00,2013-01-21 01:10:00,
2013-01-20 20:15:00,44.0,34.9,30.16,North,360,0.0,0.0,70,0.00,,---,0.00,VWS V14.00,2013-01-21 01:15:00,
2013-01-20 20:20:00,43.6,35.2,30.16,North,360,0.0,0.0,72,0.00,,---,0.00,VWS V14.00,2013-01-21 01:20:00,
2013-01-20 20:25:00,43.2,35.1,30.16,North,360,0.0,0.0,73,0.00,,---,0.00,VWS V14.00,2013-01-21 01:25:00,
2013-01-20 20:30:00,42.8,34.8,30.16,North,360,0.0,0.0,73,0.00,,---,0.00,VWS V14.00,2013-01-21 01:30:00,
2013-01-20 20:35:00,42.5,35.2,30.16,North,360,0.0,0.0,75,0.00,,---,0.00,VWS V14.00,2013-01-21 01:35:00,
2013-01-20 20:40:00,42.1,35.1,30.16,North,360,0.0,0.0,76,0.00,,---,0.00,VWS V14.00,2013-01-21 01:40:00,
2013-01-20 20:45:00,41.8,35.1,30.16,North,360,0.0,0.0,77,0.00,,---,0.00,VWS V14.00,2013-01-21 01:45:00,
2013-01-20 20:51:00,41.5,34.8,30.16,North,360,0.0,0.0,77,0.00,,---,0.00,VWS V14.00,2013-01-21 01:51:00,
2013-01-20 20:56:00,41.2,34.9,30.16,North,360,0.0,0.0,78,0.00,,---,0.00,VWS V14.00,2013-01-21 01:56:00,
2013-01-20 21:01:00,41.0,34.7,30.16,North,360,0.0,0.0,78,0.00,,---,0.00,VWS V14.00,2013-01-21 02:01:00,
2013-01-20 21:06:00,40.8,34.5,30.16,North,360,0.0,0.0,78,0.00,,---,0.00,VWS V14.00,2013-01-21 02:06:00,
2013-01-20 21:11:00,40.6,34.6,30.16,North,360,0.0,0.0,79,0.00,,---,0.00,VWS V14.00,2013-01-21 02:11:00,
2013-01-20 21:16:00,40.4,34.4,30.16,North,360,0.0,0.0,79,0.00,,---,0.00,VWS V14.00,2013-01-21 02:16:00,
2013-01-20 21:22:00,40.1,34.1,30.16,North,360,0.0,0.0,79,0.00,,---,0.00,VWS V14.00,2013-01-21 02:22:00,
2013-01-20 21:27:00,39.9,33.9,30.16,North,360,0.0,0.0,79,0.00,,---,0.00,VWS V14.00,2013-01-21 02:27:00,
2013-01-20 21:33:00,39.8,33.8,30.16,North,360,0.0,0.0,79,0.00,,---,0.00,VWS V14.00,2013-01-21 02:33:00,
2013-01-20 21:38:00,39.6,34.0,30.16,North,360,0.0,0.0,80,0.00,,---,0.00,VWS V14.00,2013-01-21 02:38:00,
2013-01-20 21:43:00,39.5,33.8,30.16,North,360,0.0,0.0,80,0.00,,---,0.00,VWS V14.00,2013-01-21 02:43:00,
2013-01-20 21:48:00,39.3,34.0,30.16,North,360,0.0,0.0,81,0.00,,---,0.00,VWS V14.00,2013-01-21 02:48:00,
2013-01-20 21:53:00,39.2,33.9,30.16,North,360,0.0,0.0,81,0.00,,---,0.00,VWS V14.00,2013-01-21 02:53:00,
2013-01-20 21:58:00,39.1,33.8,30.16,North,360,0.0,0.0,81,0.00,,---,0.00,VWS V14.00,2013-01-21 02:58:00,
2013-01-20 22:03:00,39.0,33.7,30.16,North,360,0.0,0.0,81,0.00,,---,0.00,VWS V14.00,2013-01-21 03:03:00,
2013-01-20 22:08:00,38.9,33.9,30.16,North,360,0.0,0.0,82,0.00,,---,0.00,VWS V14.00,2013-01-21 03:08:00,
2013-01-20 22:13:00,38.8,33.8,30.16,North,360,0.0,0.0,82,0.00,,---,0.00,VWS V14.00,2013-01-21 03:13:00,
2013-01-20 22:18:00,38.8,33.8,30.16,North,360,0.0,0.0,82,0.00,,---,0.00,VWS V14.00,2013-01-21 03:18:00,
2013-01-20 22:23:00,38.6,33.9,30.16,North,360,0.0,0.0,83,0.00,,---,0.00,VWS V14.00,2013-01-21 03:23:00,
2013-01-20 22:29:00,38.5,33.8,30.16,North,360,0.0,0.0,83,0.00,,---,0.00,VWS V14.00,2013-01-21 03:29:00,
2013-01-20 22:34:00,38.3,33.6,30.16,North,360,0.0,0.0,83,0.00,,---,0.00,VWS V14.00,2013-01-21 03:34:00,
2013-01-20 22:39:00,38.0,33.6,30.16,North,360,0.0,0.0,84,0.00,,---,0.00,VWS V14.00,2013-01-21 03:39:00,
2013-01-20 22:44:00,37.8,33.4,30.17,North,360,0.0,0.0,84,0.00,,---,0.00,VWS V14.00,2013-01-21 03:44:00,
2013-01-20 22:50:00,37.5,33.4,30.17,North,360,0.0,0.0,85,0.00,,---,0.00,VWS V14.00,2013-01-21 03:50:00,
2013-01-20 22:55:00,37.3,33.2,30.16,North,360,0.0,0.0,85,0.00,,---,0.00,VWS V14.00,2013-01-21 03:55:00,
2013-01-20 23:00:00,37.1,33.0,30.16,North,360,0.0,0.0,85,0.00,,---,0.00,VWS V14.00,2013-01-21 04:00:00,
2013-01-20 23:05:00,36.9,33.1,30.17,North,360,0.0,0.0,86,0.00,,---,0.00,VWS V14.00,2013-01-21 04:05:00,
2013-01-20 23:10:00,36.7,32.9,30.16,North,360,0.0,0.0,86,0.00,,---,0.00,VWS V14.00,2013-01-21 04:10:00,
2013-01-20 23:15:00,36.5,33.0,30.16,North,360,0.0,0.0,87,0.00,,---,0.00,VWS V14.00,2013-01-21 04:15:00,
2013-01-20 23:20:00,36.4,33.2,30.16,North,360,0.0,0.0,88,0.00,,---,0.00,VWS V14.00,2013-01-21 04:20:00,
2013-01-20 23:25:00,36.1,32.6,30.16,North,360,0.0,0.0,87,0.00,,---,0.00,VWS V14.00,2013-01-21 04:25:00,
2013-01-20 23:30:00,36.0,32.5,30.15,North,360,0.0,0.0,87,0.00,,---,0.00,VWS V14.00,2013-01-21 04:30:00,
2013-01-20 23:35:00,35.8,32.6,30.15,North,360,0.0,0.0,88,0.00,,---,0.00,VWS V14.00,2013-01-21 04:35:00,
2013-01-20 23:41:00,35.6,32.4,30.15,North,360,0.0,0.0,88,0.00,,---,0.00,VWS V14.00,2013-01-21 04:41:00,
2013-01-20 23:46:00,35.4,32.2,30.15,North,360,0.0,0.0,88,0.00,,---,0.00,VWS V14.00,2013-01-21 04:46:00,
2013-01-20 23:51:00,35.2,32.0,30.15,North,360,0.0,0.0,88,0.00,,---,0.00,VWS V14.00,2013-01-21 04:51:00,
2013-01-20 23:56:00,35.0,31.8,30.15,North,360,0.0,0.0,88,0.00,,---,0.00,VWS V14.00,2013-01-21 04:56:00,